createdAt,value
2023-03-26T00:00:50.451Z,99082.06
2023-03-26T00:02:23.614Z,99083.06
2023-03-26T00:03:58.072Z,99079.66
2023-03-26T00:05:32.291Z,99088.69
2023-03-26T00:07:04.124Z,99092.47
2023-03-26T00:08:37.936Z,99104.31
2023-03-26T00:10:10.196Z,99095.44
2023-03-26T00:11:43.132Z,99095.44
2023-03-26T00:13:14.902Z,99102.63
2023-03-26T00:14:46.709Z,99103.63
2023-03-26T00:16:19.934Z,99098.25
2023-03-26T00:17:54.360Z,99102.63
2023-03-26T00:19:26.157Z,99111.50
2023-03-26T00:21:05.671Z,99102.47
2023-03-26T00:22:37.438Z,99110.13
2023-03-26T00:24:15.498Z,99108.16
2023-03-26T00:25:51.040Z,99098.16
2023-03-26T00:27:23.356Z,99107.78
2023-03-26T00:28:55.131Z,99108.50
2023-03-26T00:30:27.852Z,99116.38
2023-03-26T00:31:59.782Z,99104.41
2023-03-26T00:33:32.343Z,99110.50
2023-03-26T00:35:05.010Z,99101.44
2023-03-26T00:36:37.429Z,99112.91
2023-03-26T00:38:09.255Z,99116.44
2023-03-26T00:39:42.927Z,99108.38
2023-03-26T00:41:18.087Z,99111.78
2023-03-26T00:42:50.395Z,99099.34
2023-03-26T00:44:22.235Z,99109.94
2023-03-26T00:45:55.829Z,99103.75
2023-03-26T00:47:29.286Z,99115.16
2023-03-26T00:49:02.076Z,99098.97
2023-03-26T00:50:33.867Z,99113.06
2023-03-26T00:52:08.842Z,99104.91
2023-03-26T00:53:41.448Z,99105.47
2023-03-26T00:55:13.479Z,99100.09
2023-03-26T00:56:45.638Z,99106.19
2023-03-26T00:58:17.473Z,99098.84
2023-03-26T00:59:50.552Z,99100.41
2023-03-26T01:01:29.204Z,99095.88
2023-03-26T01:03:03.209Z,99084.03
2023-03-26T01:04:35.406Z,99079.50
2023-03-26T01:06:11.511Z,99092.81
2023-03-26T01:07:44.863Z,99097.03
2023-03-26T01:09:21.757Z,99105.91
2023-03-26T01:11:03.040Z,99106.63
2023-03-26T01:12:34.928Z,99104.09
2023-03-26T01:14:27.022Z,99119.94
2023-03-26T01:16:02.168Z,99115.25
2023-03-26T01:17:38.056Z,99114.25
2023-03-26T01:19:18.278Z,99111.16
2023-03-26T01:20:51.394Z,99109.47
2023-03-26T01:22:27.464Z,99100.13
2023-03-26T01:24:05.364Z,99101.53
2023-03-26T01:25:44.733Z,99106.47
2023-03-26T01:27:39.173Z,99102.88
2023-03-26T01:29:20.990Z,99104.13
2023-03-26T01:31:06.464Z,99100.31
2023-03-26T01:32:51.616Z,99101.84
2023-03-26T01:34:49.975Z,99111.41
2023-03-26T01:36:32.655Z,99101.91
2023-03-26T01:38:23.416Z,99095.53
2023-03-26T01:40:06.149Z,99106.38
2023-03-26T01:41:56.084Z,99105.31
2023-03-26T01:43:35.487Z,99104.63
2023-03-26T01:45:16.831Z,99100.63
2023-03-26T01:46:50.267Z,99104.41
2023-03-26T01:48:30.601Z,99096.78
2023-03-26T01:50:02.436Z,99103.25
2023-03-26T01:51:36.016Z,99100.00
2023-03-26T01:53:10.503Z,99096.81
2023-03-26T01:54:43.239Z,99104.16
2023-03-26T01:56:36.883Z,99102.97
2023-03-26T01:58:24.342Z,99097.03
2023-03-26T01:59:58.978Z,99092.53
2023-03-26T02:01:44.982Z,99096.31
2023-03-26T02:03:32.111Z,99084.03
2023-03-26T02:05:12.997Z,99086.84
2023-03-26T02:06:51.720Z,99095.72
2023-03-26T02:08:25.504Z,99100.50
2023-03-26T02:10:05.752Z,99098.91
2023-03-26T02:11:39.879Z,99092.81
2023-03-26T02:13:13.438Z,99090.41
2023-03-26T02:14:45.916Z,99084.34
2023-03-26T02:16:20.177Z,99083.63
2023-03-26T02:17:54.330Z,99082.78
2023-03-26T02:19:26.230Z,99082.78
2023-03-26T02:20:58.023Z,99088.25
2023-03-26T02:22:30.108Z,99088.25
2023-03-26T02:24:04.065Z,99088.38
2023-03-26T02:25:42.140Z,99089.22
2023-03-26T02:27:14.660Z,99100.78
2023-03-26T02:28:47.919Z,99094.31
2023-03-26T02:30:25.967Z,99089.97
2023-03-26T02:32:02.420Z,99088.97
2023-03-26T02:33:34.346Z,99093.34
2023-03-26T02:35:07.103Z,99095.91
2023-03-26T02:36:43.060Z,99087.03
2023-03-26T02:38:15.206Z,99092.38
2023-03-26T02:39:47.619Z,99082.53
2023-03-26T02:41:29.222Z,99089.69
2023-03-26T02:43:05.551Z,99094.06
2023-03-26T02:44:40.405Z,99091.41
2023-03-26T02:46:24.133Z,99096.88
2023-03-26T02:48:09.525Z,99091.41
2023-03-26T02:49:53.038Z,99095.66
2023-03-26T02:51:45.142Z,99097.22
2023-03-26T02:53:29.902Z,99092.47
2023-03-26T02:55:19.318Z,99098.50
2023-03-26T02:56:52.036Z,99093.88
2023-03-26T02:58:42.612Z,99091.94
2023-03-26T03:00:14.766Z,99094.47
2023-03-26T03:01:52.209Z,99090.69
2023-03-26T03:03:27.218Z,99080.81
2023-03-26T03:05:02.235Z,99091.38
2023-03-26T03:06:39.064Z,99084.22
2023-03-26T03:08:10.896Z,99087.59
2023-03-26T03:09:50.834Z,99089.31
2023-03-26T03:11:52.810Z,99092.00
2023-03-26T03:13:24.803Z,99080.31
2023-03-26T03:14:56.722Z,99083.97
2023-03-26T03:16:28.962Z,99090.28
2023-03-26T03:18:03.117Z,99078.47
2023-03-26T03:19:37.987Z,99081.28
2023-03-26T03:21:10.068Z,99086.66
2023-03-26T03:22:42.008Z,99084.09
2023-03-26T03:24:14.179Z,99084.94
2023-03-26T03:25:51.067Z,99084.94
2023-03-26T03:27:24.010Z,99087.59
2023-03-26T03:29:02.684Z,99077.75
2023-03-26T03:30:35.910Z,99081.28
2023-03-26T03:32:22.841Z,99078.47
2023-03-26T03:33:56.819Z,99083.81
2023-03-26T03:35:30.519Z,99082.13
2023-03-26T03:37:05.524Z,99082.13
2023-03-26T03:38:45.615Z,99076.91
2023-03-26T03:40:21.726Z,99079.56
2023-03-26T03:41:53.780Z,99076.19
2023-03-26T03:43:25.663Z,99084.50
2023-03-26T03:45:14.342Z,99077.56
2023-03-26T03:46:49.495Z,99078.66
2023-03-26T03:48:21.520Z,99076.25
2023-03-26T03:49:53.940Z,99079.06
2023-03-26T03:51:26.055Z,99074.66
2023-03-26T03:53:01.410Z,99074.81
2023-03-26T03:54:33.903Z,99070.72
2023-03-26T03:56:39.771Z,99076.31
2023-03-26T03:58:31.228Z,99073.75
2023-03-26T04:00:14.962Z,99075.00
2023-03-26T04:01:55.135Z,99072.59
2023-03-26T04:03:39.234Z,99072.97
2023-03-26T04:05:16.375Z,99070.56
2023-03-26T04:06:52.878Z,99078.84
2023-03-26T04:08:25.681Z,99075.56
2023-03-26T04:10:00.559Z,99076.69
2023-03-26T04:11:37.030Z,99075.69
2023-03-26T04:13:31.966Z,99069.75
2023-03-26T04:15:22.850Z,99059.44
2023-03-26T04:16:55.179Z,99060.28
2023-03-26T04:18:29.768Z,99068.41
2023-03-26T04:20:07.051Z,99063.81
2023-03-26T04:21:39.779Z,99063.81
2023-03-26T04:23:14.373Z,99061.13
2023-03-26T04:24:49.939Z,99061.28
2023-03-26T04:26:34.031Z,99064.66
2023-03-26T04:28:12.045Z,99066.34
2023-03-26T04:30:06.917Z,99063.41
2023-03-26T04:31:39.279Z,99066.81
2023-03-26T04:33:15.680Z,99064.00
2023-03-26T04:34:48.869Z,99058.38
2023-03-26T04:36:27.709Z,99057.28
2023-03-26T04:38:01.332Z,99069.44
2023-03-26T04:39:40.270Z,99064.69
2023-03-26T04:41:32.639Z,99063.56
2023-03-26T04:43:16.530Z,99048.09
2023-03-26T04:45:06.735Z,99062.34
2023-03-26T04:46:38.745Z,99060.25
2023-03-26T04:48:22.158Z,99054.66
2023-03-26T04:49:53.982Z,99056.34
2023-03-26T04:51:30.403Z,99059.00
2023-03-26T04:53:03.182Z,99058.03
2023-03-26T04:54:53.438Z,99057.06
2023-03-26T04:56:43.535Z,99050.97
2023-03-26T04:58:18.895Z,99056.06
2023-03-26T05:00:08.889Z,99056.91
2023-03-26T05:01:42.139Z,99051.44
2023-03-26T05:03:16.709Z,99059.47
2023-03-26T05:04:50.170Z,99055.66
2023-03-26T05:06:23.102Z,99058.34
2023-03-26T05:07:55.441Z,99050.19
2023-03-26T05:09:28.227Z,99063.31
2023-03-26T05:11:20.829Z,99062.09
2023-03-26T05:12:52.685Z,99061.94
2023-03-26T05:14:31.078Z,99059.88
2023-03-26T05:16:04.041Z,99065.91
2023-03-26T05:17:45.228Z,99072.84
2023-03-26T05:19:25.937Z,99070.91
2023-03-26T05:20:58.364Z,99069.94
2023-03-26T05:22:31.564Z,99070.69
2023-03-26T05:24:14.853Z,99075.88
2023-03-26T05:25:47.360Z,99066.00
2023-03-26T05:27:25.069Z,99069.41
2023-03-26T05:28:57.271Z,99074.78
2023-03-26T05:30:34.639Z,99069.41
2023-03-26T05:32:08.004Z,99078.31
2023-03-26T05:33:40.353Z,99078.16
2023-03-26T05:35:17.824Z,99073.78
2023-03-26T05:36:50.760Z,99071.84
2023-03-26T05:38:47.440Z,99066.47
2023-03-26T05:40:23.665Z,99083.50
2023-03-26T05:42:01.910Z,99071.94
2023-03-26T05:43:49.141Z,99087.06
2023-03-26T05:45:25.516Z,99083.41
2023-03-26T05:46:57.332Z,99083.41
2023-03-26T05:48:31.828Z,99092.16
2023-03-26T05:50:05.154Z,99089.47
2023-03-26T05:51:41.373Z,99091.91
2023-03-26T05:53:36.094Z,99089.06
2023-03-26T05:55:26.252Z,99094.28
2023-03-26T05:57:24.166Z,99088.66
2023-03-26T05:59:15.549Z,99087.44
2023-03-26T06:01:17.282Z,99076.47
2023-03-26T06:03:12.949Z,99086.63
2023-03-26T06:05:14.169Z,99081.59
2023-03-26T06:06:52.887Z,99083.72
2023-03-26T06:08:25.950Z,99081.34
2023-03-26T06:09:58.423Z,99082.53
2023-03-26T06:11:32.183Z,99078.31
2023-03-26T06:13:05.392Z,99091.75
2023-03-26T06:14:40.061Z,99082.31
2023-03-26T06:16:32.200Z,99088.69
2023-03-26T06:18:26.626Z,99076.41
2023-03-26T06:20:23.228Z,99073.31
2023-03-26T06:21:56.949Z,99072.91
2023-03-26T06:23:36.510Z,99063.72
2023-03-26T06:25:34.438Z,99070.50
2023-03-26T06:27:13.021Z,99062.47
2023-03-26T06:29:05.528Z,99066.84
2023-03-26T06:30:51.676Z,99060.63
2023-03-26T06:32:41.890Z,99063.19
2023-03-26T06:34:22.332Z,99063.19
2023-03-26T06:35:54.538Z,99060.50
2023-03-26T06:37:26.577Z,99056.13
2023-03-26T06:39:07.581Z,99052.44
2023-03-26T06:40:41.588Z,99059.66
2023-03-26T06:43:06.737Z,99059.50
2023-03-26T06:44:38.928Z,99061.22
2023-03-26T06:46:36.475Z,99056.41
2023-03-26T06:48:37.532Z,99061.50
2023-03-26T06:50:29.869Z,99056.41
2023-03-26T06:52:32.216Z,99053.06
2023-03-26T06:54:23.481Z,99048.25
2023-03-26T06:55:55.511Z,99056.47
2023-03-26T06:57:39.141Z,99052.75
2023-03-26T06:59:43.108Z,99051.34
2023-03-26T07:01:33.532Z,99052.75
2023-03-26T07:03:24.051Z,99061.25
2023-03-26T07:05:14.889Z,99059.97
2023-03-26T07:07:05.635Z,99051.47
2023-03-26T07:08:57.552Z,99050.31
2023-03-26T07:10:48.130Z,99063.31
2023-03-26T07:12:41.738Z,99051.16
2023-03-26T07:14:51.968Z,99054.94
2023-03-26T07:16:43.589Z,99054.94
2023-03-26T07:18:18.483Z,99055.19
2023-03-26T07:19:52.840Z,99047.53
2023-03-26T07:21:28.485Z,99046.13
2023-03-26T07:23:00.624Z,99043.53
2023-03-26T07:24:55.942Z,99044.63
2023-03-26T07:27:11.395Z,99044.19
2023-03-26T07:29:04.644Z,99050.66
2023-03-26T07:31:01.922Z,99046.53
2023-03-26T07:33:23.920Z,99042.56
2023-03-26T07:35:29.065Z,99042.66
2023-03-26T07:37:38.202Z,99042.06
2023-03-26T07:39:46.630Z,99036.91
2023-03-26T07:41:46.208Z,99046.41
2023-03-26T07:44:02.779Z,99047.19
2023-03-26T07:45:58.051Z,99045.41
2023-03-26T07:47:49.747Z,99045.09
2023-03-26T07:49:31.677Z,99048.72
2023-03-26T07:51:19.058Z,99051.84
2023-03-26T07:52:56.913Z,99049.38
2023-03-26T07:54:36.633Z,99042.84
2023-03-26T07:56:38.849Z,99046.06
2023-03-26T07:58:48.149Z,99041.22
2023-03-26T08:00:50.215Z,99050.19
2023-03-26T08:02:52.770Z,99046.50
2023-03-26T08:05:10.705Z,99045.50
2023-03-26T08:07:34.046Z,99042.50
2023-03-26T08:09:31.014Z,99043.34
2023-03-26T08:11:07.371Z,99038.78
2023-03-26T08:12:50.023Z,99043.34
2023-03-26T08:14:42.678Z,99034.91
2023-03-26T08:16:23.310Z,99039.28
2023-03-26T08:18:12.008Z,99033.88
2023-03-26T08:19:52.638Z,99027.13
2023-03-26T08:21:31.971Z,99035.88
2023-03-26T08:23:13.640Z,99038.88
2023-03-26T08:25:16.833Z,99036.66
2023-03-26T08:27:13.648Z,99034.09
2023-03-26T08:29:11.079Z,99037.81
2023-03-26T08:30:43.219Z,99039.34
2023-03-26T08:32:17.928Z,99034.97
2023-03-26T08:33:50.301Z,99033.28
2023-03-26T08:35:22.674Z,99041.34
2023-03-26T08:36:54.521Z,99034.97
2023-03-26T08:38:26.594Z,99031.28
2023-03-26T08:39:58.399Z,99038.66
2023-03-26T08:41:48.609Z,99029.59
2023-03-26T08:43:39.177Z,99029.44
2023-03-26T08:45:20.165Z,99029.97
2023-03-26T08:47:23.626Z,99033.81
2023-03-26T08:49:36.603Z,99035.50
2023-03-26T08:51:42.631Z,99031.81
2023-03-26T08:53:48.261Z,99028.59
2023-03-26T08:55:41.797Z,99017.94
2023-03-26T08:57:41.663Z,99020.50
2023-03-26T08:59:19.198Z,99030.13
2023-03-26T09:01:18.823Z,99021.34
2023-03-26T09:03:17.348Z,99020.34
2023-03-26T09:05:08.203Z,99025.59
2023-03-26T09:07:06.981Z,99029.66
2023-03-26T09:09:00.805Z,99010.47
2023-03-26T09:10:44.976Z,99019.59
2023-03-26T09:12:38.500Z,99016.41
2023-03-26T09:14:36.065Z,99016.41
2023-03-26T09:16:16.851Z,99012.38
2023-03-26T09:18:26.270Z,99012.38
2023-03-26T09:20:37.261Z,99011.09
2023-03-26T09:22:30.942Z,99009.59
2023-03-26T09:24:30.519Z,99006.06
2023-03-26T09:26:14.289Z,99008.31
2023-03-26T09:28:16.475Z,99006.59
2023-03-26T09:30:25.560Z,99004.41
2023-03-26T09:32:31.733Z,99005.84
2023-03-26T09:34:30.365Z,98990.22
2023-03-26T09:36:37.981Z,98992.41
2023-03-26T09:38:50.692Z,98996.16
2023-03-26T09:40:47.291Z,98983.75
2023-03-26T09:42:45.071Z,98985.78
2023-03-26T09:44:39.846Z,98989.06
2023-03-26T09:46:36.965Z,98979.81
2023-03-26T09:48:38.829Z,98980.56
2023-03-26T09:50:31.894Z,98972.00
2023-03-26T09:52:21.780Z,98974.22
2023-03-26T09:54:21.203Z,98981.19
2023-03-26T09:56:08.228Z,98969.44
2023-03-26T09:57:58.703Z,98960.84
2023-03-26T10:00:10.353Z,98970.00
2023-03-26T10:02:04.516Z,98964.25
2023-03-26T10:03:50.215Z,98960.31
2023-03-26T10:05:47.123Z,98967.41
2023-03-26T10:08:01.672Z,98965.19
2023-03-26T10:09:56.858Z,98960.06
2023-03-26T10:12:02.645Z,98957.13
2023-03-26T10:13:51.173Z,98956.69
2023-03-26T10:15:45.470Z,98954.09
2023-03-26T10:17:35.908Z,98944.53
2023-03-26T10:19:36.211Z,98943.09
2023-03-26T10:21:40.691Z,98946.06
2023-03-26T10:23:53.488Z,98929.38
2023-03-26T10:26:04.072Z,98933.34
2023-03-26T10:27:47.770Z,98928.53
2023-03-26T10:29:52.215Z,98921.13
2023-03-26T10:31:52.250Z,98918.00
2023-03-26T10:33:54.218Z,98913.25
2023-03-26T10:35:45.024Z,98915.59
2023-03-26T10:37:35.654Z,98900.63
2023-03-26T10:39:36.781Z,98899.41
2023-03-26T10:41:21.740Z,98896.53
2023-03-26T10:43:21.383Z,98891.91
2023-03-26T10:45:13.327Z,98887.72
2023-03-26T10:47:14.691Z,98886.81
2023-03-26T10:49:07.848Z,98880.84
2023-03-26T10:51:23.274Z,98871.25
2023-03-26T10:53:03.415Z,98871.75
2023-03-26T10:54:56.104Z,98863.84
2023-03-26T10:56:36.201Z,98873.59
2023-03-26T10:58:48.766Z,98866.31
2023-03-26T11:00:29.185Z,98863.09
2023-03-26T11:02:29.472Z,98855.00
2023-03-26T11:04:28.349Z,98857.19
2023-03-26T11:06:11.938Z,98854.53
2023-03-26T11:07:53.993Z,98858.41
2023-03-26T11:09:33.214Z,98846.09
2023-03-26T11:11:19.926Z,98855.16
2023-03-26T11:13:04.982Z,98852.66
2023-03-26T11:14:57.871Z,98847.88
2023-03-26T11:16:35.039Z,98845.16
2023-03-26T11:18:19.894Z,98841.81
2023-03-26T11:19:59.114Z,98838.66
2023-03-26T11:21:50.004Z,98848.53
2023-03-26T11:23:41.154Z,98844.97
2023-03-26T11:25:28.304Z,98832.34
2023-03-26T11:27:17.434Z,98836.09
2023-03-26T11:29:31.426Z,98837.56
2023-03-26T11:31:13.651Z,98834.63
2023-03-26T11:32:52.021Z,98840.50
2023-03-26T11:34:32.660Z,98837.13
2023-03-26T11:36:12.401Z,98830.22
2023-03-26T11:37:48.739Z,98831.91
2023-03-26T11:39:26.148Z,98830.41
2023-03-26T11:41:00.471Z,98822.47
2023-03-26T11:43:04.668Z,98816.78
2023-03-26T11:44:44.423Z,98813.22
2023-03-26T11:46:19.447Z,98815.53
2023-03-26T11:47:55.901Z,98813.63
2023-03-26T11:49:29.657Z,98817.16
2023-03-26T11:51:38.803Z,98810.44
2023-03-26T11:53:17.870Z,98816.47
2023-03-26T11:54:50.685Z,98813.50
2023-03-26T11:57:04.389Z,98810.13
2023-03-26T11:58:47.609Z,98820.81
2023-03-26T12:00:23.235Z,98817.63
2023-03-26T12:02:04.945Z,98811.75
2023-03-26T12:03:38.347Z,98813.63
2023-03-26T12:05:11.011Z,98817.41
2023-03-26T12:06:57.853Z,98819.69
2023-03-26T12:08:38.850Z,98817.16
2023-03-26T12:10:27.123Z,98813.59
2023-03-26T12:12:04.359Z,98813.41
2023-03-26T12:13:42.274Z,98809.22
2023-03-26T12:15:19.283Z,98806.91
2023-03-26T12:17:05.007Z,98813.75
2023-03-26T12:18:39.899Z,98809.56
2023-03-26T12:20:25.052Z,98813.03
2023-03-26T12:21:57.230Z,98811.13
2023-03-26T12:23:54.160Z,98805.78
2023-03-26T12:25:31.786Z,98807.81
2023-03-26T12:27:22.096Z,98805.41
2023-03-26T12:28:54.286Z,98806.19
2023-03-26T12:30:30.955Z,98794.81
2023-03-26T12:32:15.114Z,98800.97
2023-03-26T12:34:16.430Z,98788.97
2023-03-26T12:35:49.148Z,98795.81
2023-03-26T12:37:50.411Z,98792.59
2023-03-26T12:40:08.147Z,98797.53
2023-03-26T12:44:43.722Z,98796.06
2023-03-26T12:44:56.289Z,98793.06
2023-03-26T12:45:43.504Z,98800.38
2023-03-26T12:47:57.824Z,98796.38
2023-03-26T12:49:11.729Z,98797.00
2023-03-26T12:51:43.483Z,98791.28
2023-03-26T12:53:56.419Z,98790.53
2023-03-26T12:56:01.571Z,98791.06
2023-03-26T12:57:40.652Z,98798.53
2023-03-26T12:59:18.720Z,98800.06
2023-03-26T13:01:07.634Z,98804.94
2023-03-26T13:02:49.546Z,98794.19
2023-03-26T13:05:04.297Z,98802.31
2023-03-26T13:07:00.339Z,98796.16
2023-03-26T13:08:56.392Z,98784.09
2023-03-26T13:10:48.571Z,98790.00
2023-03-26T13:12:46.387Z,98787.38
2023-03-26T13:14:27.270Z,98785.97
2023-03-26T13:16:16.590Z,98784.53
2023-03-26T13:18:18.322Z,98779.88
2023-03-26T13:20:00.311Z,98773.31
2023-03-26T13:21:57.320Z,98776.28
2023-03-26T13:23:57.092Z,98776.63
2023-03-26T13:25:41.410Z,98770.59
2023-03-26T13:27:29.769Z,98768.56
2023-03-26T13:29:14.499Z,98763.16
2023-03-26T13:31:11.822Z,98767.28
2023-03-26T13:33:04.459Z,98760.81
2023-03-26T13:34:36.560Z,98763.06
2023-03-26T13:36:24.317Z,98760.88
2023-03-26T13:38:20.428Z,98753.78
2023-03-26T13:40:15.665Z,98755.81
2023-03-26T13:42:02.274Z,98754.81
2023-03-26T13:43:59.011Z,98754.97
2023-03-26T13:45:55.775Z,98749.09
2023-03-26T13:47:35.914Z,98744.72
2023-03-26T13:49:15.740Z,98744.88
2023-03-26T13:51:00.723Z,98746.28
2023-03-26T13:52:44.978Z,98746.47
2023-03-26T13:54:40.368Z,98749.34
2023-03-26T13:56:17.536Z,98747.13
2023-03-26T13:58:02.303Z,98752.53
2023-03-26T14:00:10.438Z,98747.31
2023-03-26T14:02:02.493Z,98740.88
2023-03-26T14:03:52.739Z,98740.03
2023-03-26T14:05:32.359Z,98742.38
2023-03-26T14:07:09.079Z,98745.91
2023-03-26T14:08:49.354Z,98742.38
2023-03-26T14:10:27.512Z,98738.84
2023-03-26T14:12:33.587Z,98745.44
2023-03-26T14:14:16.727Z,98740.03
2023-03-26T14:15:58.119Z,98739.19
2023-03-26T14:17:49.155Z,98741.41
2023-03-26T14:19:39.326Z,98742.78
2023-03-26T14:21:16.942Z,98739.09
2023-03-26T14:23:28.052Z,98741.84
2023-03-26T14:25:26.412Z,98758.44
2023-03-26T14:27:05.655Z,98764.03
2023-03-26T14:29:02.298Z,98765.47
2023-03-26T14:31:09.534Z,98771.47
2023-03-26T14:33:27.266Z,98767.19
2023-03-26T14:35:28.213Z,98761.84
2023-03-26T14:37:11.296Z,98757.53
2023-03-26T14:39:13.046Z,98766.38
2023-03-26T14:41:03.710Z,98765.59
2023-03-26T14:42:43.235Z,98762.22
2023-03-26T14:44:49.752Z,98755.63
2023-03-26T14:46:50.689Z,98761.22
2023-03-26T14:48:48.285Z,98761.88
2023-03-26T14:50:26.826Z,98751.91
2023-03-26T14:52:06.011Z,98754.44
2023-03-26T14:53:56.898Z,98754.53
2023-03-26T14:56:01.130Z,98751.56
2023-03-26T14:57:54.107Z,98761.31
2023-03-26T14:59:49.798Z,98756.72
2023-03-26T15:01:43.430Z,98762.72
2023-03-26T15:03:49.298Z,98757.75
2023-03-26T15:05:46.135Z,98747.63
2023-03-26T15:07:32.479Z,98744.06
2023-03-26T15:09:52.365Z,98751.38
2023-03-26T15:12:12.277Z,98747.63
2023-03-26T15:14:20.568Z,98742.88
2023-03-26T15:16:29.820Z,98752.59
2023-03-26T15:18:28.714Z,98760.44
2023-03-26T15:20:26.907Z,98750.66
2023-03-26T15:22:35.862Z,98757.81
2023-03-26T15:24:37.880Z,98759.13
2023-03-26T15:26:29.175Z,98751.38
2023-03-26T15:28:33.698Z,98754.81
2023-03-26T15:30:48.730Z,98756.13
2023-03-26T15:32:40.668Z,98751.53
2023-03-26T15:35:00.298Z,98748.31
2023-03-26T15:36:38.414Z,98751.00
2023-03-26T15:38:32.558Z,98747.38
2023-03-26T15:40:36.693Z,98746.69
2023-03-26T15:42:30.899Z,98748.00
2023-03-26T15:44:23.304Z,98744.47
2023-03-26T15:46:52.871Z,98746.94
2023-03-26T15:48:52.977Z,98745.25
2023-03-26T15:50:39.965Z,98738.63
2023-03-26T15:52:39.400Z,98751.81
2023-03-26T15:54:45.910Z,98751.28
2023-03-26T15:56:43.023Z,98747.22
2023-03-26T15:58:14.800Z,98744.38
2023-03-26T15:59:49.371Z,98741.16
2023-03-26T16:01:48.646Z,98746.41
2023-03-26T16:03:31.092Z,98741.22
2023-03-26T16:05:35.728Z,98747.03
2023-03-26T16:07:43.468Z,98746.63
2023-03-26T16:09:40.460Z,98744.09
2023-03-26T16:11:12.917Z,98746.63
2023-03-26T16:13:22.353Z,98743.72
2023-03-26T16:15:24.034Z,98759.28
2023-03-26T16:16:58.742Z,98751.06
2023-03-26T16:18:41.294Z,98760.25
2023-03-26T16:20:22.527Z,98756.03
2023-03-26T16:22:01.400Z,98754.50
2023-03-26T16:23:47.178Z,98750.44
2023-03-26T16:26:00.595Z,98755.22
2023-03-26T16:27:34.452Z,98758.59
2023-03-26T16:29:28.801Z,98752.13
2023-03-26T16:31:36.752Z,98757.47
2023-03-26T16:33:15.950Z,98759.47
2023-03-26T16:34:55.250Z,98758.78
2023-03-26T16:36:36.066Z,98760.03
2023-03-26T16:38:14.828Z,98759.50
2023-03-26T16:39:46.814Z,98762.34
2023-03-26T16:41:31.347Z,98760.97
2023-03-26T16:43:26.834Z,98757.00
2023-03-26T16:45:22.032Z,98770.56
2023-03-26T16:47:29.296Z,98769.16
2023-03-26T16:49:15.850Z,98770.16
2023-03-26T16:51:02.188Z,98768.63
2023-03-26T16:53:13.630Z,98770.03
2023-03-26T16:54:55.563Z,98768.22
2023-03-26T16:56:37.388Z,98771.19
2023-03-26T16:58:21.986Z,98771.47
2023-03-26T17:00:07.605Z,98770.94
2023-03-26T17:01:59.747Z,98769.09
2023-03-26T17:03:54.540Z,98773.19
2023-03-26T17:05:51.290Z,98771.50
2023-03-26T17:07:48.318Z,98768.25
2023-03-26T17:09:42.857Z,98766.72
2023-03-26T17:11:55.177Z,98776.00
2023-03-26T17:13:51.017Z,98776.00
2023-03-26T17:15:31.946Z,98770.09
2023-03-26T17:17:24.509Z,98775.72
2023-03-26T17:19:04.414Z,98768.84
2023-03-26T17:20:43.067Z,98770.09
2023-03-26T17:22:34.789Z,98780.25
2023-03-26T17:24:27.199Z,98775.91
2023-03-26T17:26:34.674Z,98777.88
2023-03-26T17:28:27.630Z,98773.78
2023-03-26T17:30:30.764Z,98780.25
2023-03-26T17:32:15.211Z,98776.75
2023-03-26T17:33:48.104Z,98778.59
2023-03-26T17:35:35.273Z,98780.00
2023-03-26T17:37:28.089Z,98779.16
2023-03-26T17:39:18.794Z,98777.75
2023-03-26T17:40:55.318Z,98774.91
2023-03-26T17:42:36.111Z,98782.25
2023-03-26T17:44:36.675Z,98779.31
2023-03-26T17:46:43.132Z,98784.78
2023-03-26T17:48:20.707Z,98789.16
2023-03-26T17:50:04.569Z,98782.53
2023-03-26T17:52:11.211Z,98782.81
2023-03-26T17:53:43.701Z,98788.03
2023-03-26T17:55:21.293Z,98786.50
2023-03-26T17:56:56.412Z,98795.50
2023-03-26T17:58:33.883Z,98791.13
2023-03-26T18:00:09.050Z,98792.97
2023-03-26T18:01:46.374Z,98791.25
2023-03-26T18:03:34.271Z,98795.91
2023-03-26T18:05:11.383Z,98793.09
2023-03-26T18:07:15.383Z,98797.03
2023-03-26T18:08:58.444Z,98793.09
2023-03-26T18:11:18.684Z,98793.53
2023-03-26T18:12:56.193Z,98799.56
2023-03-26T18:15:11.989Z,98796.31
2023-03-26T18:16:53.298Z,98796.31
2023-03-26T18:18:42.499Z,98794.78
2023-03-26T18:20:28.416Z,98800.16
2023-03-26T18:22:05.433Z,98800.16
2023-03-26T18:23:46.187Z,98796.59
2023-03-26T18:25:25.800Z,98800.25
2023-03-26T18:27:07.363Z,98795.88
2023-03-26T18:28:45.591Z,98796.75
2023-03-26T18:30:22.834Z,98796.75
2023-03-26T18:32:03.719Z,98794.91
2023-03-26T18:33:42.123Z,98796.00
2023-03-26T18:35:20.477Z,98792.22
2023-03-26T18:37:11.066Z,98789.78
2023-03-26T18:38:43.038Z,98794.31
2023-03-26T18:40:19.362Z,98792.63
2023-03-26T18:41:51.550Z,98792.75
2023-03-26T18:43:34.501Z,98795.44
2023-03-26T18:45:29.491Z,98791.19
2023-03-26T18:47:05.667Z,98787.81
2023-03-26T18:48:37.877Z,98785.25
2023-03-26T18:50:18.798Z,98792.59
2023-03-26T18:51:57.092Z,98786.53
2023-03-26T18:53:31.371Z,98794.56
2023-03-26T18:55:04.011Z,98791.16
2023-03-26T18:56:37.547Z,98785.97
2023-03-26T18:58:35.088Z,98784.66
2023-03-26T19:00:23.474Z,98781.16
2023-03-26T19:01:58.160Z,98773.97
2023-03-26T19:03:36.132Z,98780.31
2023-03-26T19:05:14.252Z,98773.41
2023-03-26T19:06:46.566Z,98777.91
2023-03-26T19:08:20.363Z,98775.22
2023-03-26T19:09:56.452Z,98774.50
2023-03-26T19:11:29.350Z,98771.16
2023-03-26T19:13:02.550Z,98773.81
2023-03-26T19:14:50.210Z,98781.13
2023-03-26T19:16:26.389Z,98767.03
2023-03-26T19:18:07.554Z,98772.38
2023-03-26T19:19:39.451Z,98774.38
2023-03-26T19:21:11.733Z,98770.84
2023-03-26T19:22:44.859Z,98772.81
2023-03-26T19:24:19.747Z,98769.28
2023-03-26T19:25:56.581Z,98764.03
2023-03-26T19:27:29.108Z,98765.88
2023-03-26T19:29:01.436Z,98765.75
2023-03-26T19:30:36.236Z,98763.09
2023-03-26T19:32:21.604Z,98768.56
2023-03-26T19:34:11.660Z,98760.69
2023-03-26T19:35:45.583Z,98762.09
2023-03-26T19:37:25.427Z,98755.91
2023-03-26T19:39:00.210Z,98753.34
2023-03-26T19:40:34.457Z,98747.16
2023-03-26T19:42:11.570Z,98756.88
2023-03-26T19:43:48.721Z,98752.50
2023-03-26T19:45:23.222Z,98749.69
2023-03-26T19:47:31.931Z,98739.13
2023-03-26T19:49:32.242Z,98745.47
2023-03-26T19:51:06.351Z,98750.53
2023-03-26T19:52:41.481Z,98743.34
2023-03-26T19:54:16.188Z,98745.03
2023-03-26T19:55:56.632Z,98748.88
2023-03-26T19:57:30.256Z,98745.91
2023-03-26T19:59:02.468Z,98740.56
2023-03-26T20:00:34.620Z,98735.22
2023-03-26T20:02:11.705Z,98737.88
2023-03-26T20:03:47.024Z,98740.41
2023-03-26T20:05:23.204Z,98738.56
2023-03-26T20:06:56.340Z,98729.69
2023-03-26T20:08:28.468Z,98734.91
2023-03-26T20:10:01.133Z,98729.56
2023-03-26T20:11:38.125Z,98738.31
2023-03-26T20:13:17.414Z,98730.41
2023-03-26T20:14:49.273Z,98724.91
2023-03-26T20:16:25.356Z,98726.75
2023-03-26T20:17:57.156Z,98725.75
2023-03-26T20:19:29.881Z,98716.88
2023-03-26T20:21:01.747Z,98718.56
2023-03-26T20:22:33.525Z,98715.06
2023-03-26T20:24:11.741Z,98724.06
2023-03-26T20:25:50.004Z,98717.88
2023-03-26T20:27:22.535Z,98713.38
2023-03-26T20:28:54.307Z,98714.22
2023-03-26T20:30:37.351Z,98708.84
2023-03-26T20:32:18.778Z,98707.19
2023-03-26T20:33:52.099Z,98710.81
2023-03-26T20:35:36.150Z,98703.50
2023-03-26T20:37:08.294Z,98710.81
2023-03-26T20:38:41.678Z,98703.78